Time;durP1;ratioP1;P1;durP2;ratioP2;P2;SDS_P1;SDS_P2;PMS_P1;PMS_P2;Temp;Humidity;BMP_temperature;BMP_pressure;BME280_temperature;BME280_humidity;BME280_pressure;Samples;Min_cycle;Max_cycle;Signal;HPM_P1;HPM_P2
2023/07/08 00:02:10;;;;;;;17.48;8.15;;;16.60;96.10;;;;;;5112895;28;20042;-78
2023/07/08 00:04:36;;;;;;;18.15;8.27;;;16.60;96.10;;;;;;5110288;28;20111;-80
2023/07/08 00:07:01;;;;;;;17.85;8.60;;;16.60;96.10;;;;;;5112972;28;20561;-81
2023/07/08 00:09:27;;;;;;;17.85;8.93;;;16.70;96.50;;;;;;5093640;28;20054;-78
2023/07/08 00:11:53;;;;;;;16.92;8.70;;;16.60;96.80;;;;;;5112661;28;20125;-79
2023/07/08 00:14:18;;;;;;;18.10;8.20;;;16.50;97.60;;;;;;5113447;27;20032;-81
2023/07/08 00:16:44;;;;;;;17.73;8.43;;;16.50;96.80;;;;;;5119591;27;20074;-78
2023/07/08 00:19:10;;;;;;;21.25;8.52;;;16.40;97.30;;;;;;5112474;28;20464;-75
2023/07/08 00:21:36;;;;;;;17.92;8.20;;;16.50;96.80;;;;;;5111939;28;20024;-81
2023/07/08 00:24:02;;;;;;;19.30;8.68;;;16.50;96.80;;;;;;5128434;27;20085;-78
2023/07/08 00:26:30;;;;;;;15.68;7.93;;;16.50;96.00;;;;;;5111567;28;20031;-79
2023/07/08 00:28:56;;;;;;;19.58;8.27;;;16.60;96.60;;;;;;5093610;27;20031;-80
2023/07/08 00:31:23;;;;;;;20.02;8.98;;;16.60;96.70;;;;;;5111590;27;20050;-78
2023/07/08 00:33:50;;;;;;;25.15;8.43;;;16.40;97.50;;;;;;5112342;28;20035;-78
2023/07/08 00:36:19;;;;;;;19.85;8.05;;;16.30;97.90;;;;;;5111586;28;20034;-79
2023/07/08 00:38:44;;;;;;;17.05;8.65;;;16.40;96.10;;;;;;5112409;28;20534;-81
2023/07/08 00:41:33;;;;;;;18.33;7.80;;;16.40;96.90;;;;;;5112092;28;20038;-77
2023/07/08 00:44:00;;;;;;;17.27;7.70;;;16.50;96.20;;;;;;5111107;28;20027;-81
2023/07/08 00:46:31;;;;;;;17.17;7.75;;;16.70;96.80;;;;;;5109520;27;20032;-79
2023/07/08 00:49:28;;;;;;;16.92;8.40;;;16.50;96.70;;;;;;5092157;28;20451;-76
2023/07/08 00:51:54;;;;;;;16.23;8.05;;;16.40;98.10;;;;;;5091898;28;20035;-77
2023/07/08 00:54:21;;;;;;;17.70;8.38;;;16.10;99.30;;;;;;5090304;28;20040;-78
2023/07/08 00:56:54;;;;;;;18.45;8.20;;;16.00;99.50;;;;;;5091293;28;20111;-77
2023/07/08 00:59:29;;;;;;;20.95;8.18;;;16.00;99.30;;;;;;5106032;28;20052;-75
2023/07/08 01:01:56;;;;;;;16.75;8.20;;;15.90;99.70;;;;;;5107291;28;20467;-78
2023/07/08 01:04:34;;;;;;;17.13;8.27;;;16.00;99.60;;;;;;5111150;28;20027;-79
2023/07/08 01:07:03;;;;;;;15.32;7.35;;;15.90;99.90;;;;;;5111788;28;20032;-76
2023/07/08 01:09:32;;;;;;;16.98;7.78;;;16.00;99.10;;;;;;5110984;28;20023;-80
2023/07/08 01:12:02;;;;;;;17.52;7.82;;;16.10;98.60;;;;;;5111462;28;20084;-79
2023/07/08 01:14:32;;;;;;;18.65;8.05;;;16.40;96.90;;;;;;5116192;27;20039;-76
2023/07/08 01:16:58;;;;;;;15.10;7.50;;;16.40;98.50;;;;;;5128487;27;20031;-79
2023/07/08 01:19:32;;;;;;;18.23;8.70;;;16.40;97.30;;;;;;5131653;27;20027;-79
2023/07/08 01:22:00;;;;;;;14.57;7.78;;;16.30;99.00;;;;;;5123120;27;20038;-79
2023/07/08 01:24:29;;;;;;;17.48;7.85;;;16.30;99.10;;;;;;5092269;28;20027;-79
2023/07/08 01:26:56;;;;;;;19.40;8.50;;;16.00;99.90;;;;;;5111276;28;20031;-77
2023/07/08 01:29:22;;;;;;;19.30;8.65;;;15.90;99.90;;;;;;5114120;27;20035;-80
2023/07/08 01:31:48;;;;;;;18.00;8.15;;;15.70;99.90;;;;;;5112571;27;20057;-77
2023/07/08 01:34:17;;;;;;;15.75;7.53;;;15.50;99.90;;;;;;5110608;28;20036;-71
2023/07/08 01:36:52;;;;;;;14.38;7.30;;;15.50;99.90;;;;;;5111254;28;20051;-78
2023/07/08 01:39:20;;;;;;;13.32;6.88;;;15.70;99.90;;;;;;5109507;28;20392;-73
2023/07/08 01:41:47;;;;;;;15.15;7.68;;;15.90;99.90;;;;;;5092150;28;20032;-76
2023/07/08 01:44:34;;;;;;;18.48;8.32;;;16.10;98.60;;;;;;5105828;28;20028;-79
2023/07/08 01:47:13;;;;;;;17.58;8.25;;;16.20;99.90;;;;;;5094447;28;20048;-80
2023/07/08 01:49:41;;;;;;;16.35;7.63;;;15.90;99.90;;;;;;5109255;28;20126;-81
2023/07/08 01:52:08;;;;;;;17.67;8.13;;;15.60;99.90;;;;;;5109937;28;20062;-77
2023/07/08 01:54:34;;;;;;;14.25;7.40;;;15.60;99.90;;;;;;5109195;28;20020;-80
2023/07/08 01:57:01;;;;;;;16.63;7.38;;;15.70;99.90;;;;;;5110565;28;20042;-79
2023/07/08 01:59:27;;;;;;;18.60;7.82;;;15.90;99.40;;;;;;5109745;28;20458;-81
2023/07/08 02:01:56;;;;;;;19.25;8.23;;;16.00;99.90;;;;;;5110721;28;20046;-81
2023/07/08 02:04:23;;;;;;;15.88;8.30;;;15.80;99.90;;;;;;5109707;28;20463;-80
2023/07/08 02:06:56;;;;;;;18.15;8.30;;;15.70;99.90;;;;;;5109654;28;20102;-79
2023/07/08 02:09:22;;;;;;;18.02;7.75;;;15.60;99.90;;;;;;5089893;28;20032;-76
2023/07/08 02:11:48;;;;;;;18.73;8.63;;;15.20;99.90;;;;;;5104908;28;20057;-80
2023/07/08 02:14:14;;;;;;;20.13;8.00;;;15.00;99.90;;;;;;5110305;28;20024;-80
2023/07/08 02:16:39;;;;;;;15.77;7.70;;;15.00;99.90;;;;;;5108829;28;20031;-79
2023/07/08 02:19:05;;;;;;;20.67;8.45;;;15.00;99.90;;;;;;5110330;28;20039;-77
2023/07/08 02:21:31;;;;;;;17.00;7.82;;;14.90;99.90;;;;;;5109294;27;20503;-80
2023/07/08 02:23:57;;;;;;;18.35;8.15;;;14.80;99.90;;;;;;5110171;28;20030;-78
2023/07/08 02:26:23;;;;;;;20.10;8.38;;;14.90;99.90;;;;;;5109683;28;20153;-80
2023/07/08 02:28:49;;;;;;;17.77;8.30;;;14.90;99.90;;;;;;5109350;28;20049;-80
2023/07/08 02:31:15;;;;;;;15.27;7.63;;;14.70;99.90;;;;;;5103859;27;20781;-76
2023/07/08 02:33:40;;;;;;;16.05;7.57;;;14.70;99.90;;;;;;5107854;28;20032;-79
2023/07/08 02:36:06;;;;;;;18.20;8.70;;;14.70;99.90;;;;;;5109963;28;20026;-77
2023/07/08 02:38:32;;;;;;;18.85;8.35;;;14.60;99.90;;;;;;5109209;28;20032;-80
2023/07/08 02:40:58;;;;;;;20.63;7.70;;;14.60;99.90;;;;;;5109752;28;20379;-76
2023/07/08 02:43:24;;;;;;;17.02;8.43;;;14.50;99.90;;;;;;5108264;28;20027;-79
2023/07/08 02:45:50;;;;;;;19.25;8.27;;;14.50;99.90;;;;;;5099305;28;20036;-80
2023/07/08 02:48:18;;;;;;;17.02;7.90;;;14.60;99.90;;;;;;5110624;27;20494;-80
2023/07/08 02:50:43;;;;;;;15.75;6.95;;;14.70;99.90;;;;;;5109262;28;20028;-79
2023/07/08 02:53:09;;;;;;;16.88;7.70;;;14.80;99.90;;;;;;5103659;28;20044;-80
2023/07/08 02:55:35;;;;;;;15.52;7.60;;;14.90;99.90;;;;;;5088979;28;20044;-80
2023/07/08 02:58:01;;;;;;;17.23;7.80;;;15.00;99.90;;;;;;5094881;28;20373;-79
2023/07/08 03:00:28;;;;;;;17.63;8.32;;;15.10;99.90;;;;;;5107807;28;20088;-79
2023/07/08 03:02:53;;;;;;;16.40;8.20;;;14.90;99.90;;;;;;5116310;27;20486;-77
2023/07/08 03:05:19;;;;;;;17.40;8.15;;;14.60;99.90;;;;;;5109586;28;20034;-77
2023/07/08 03:07:44;;;;;;;18.20;8.60;;;14.50;99.90;;;;;;5108926;28;20027;-79
2023/07/08 03:10:10;;;;;;;19.73;8.57;;;14.40;99.90;;;;;;5109483;28;20039;-76
2023/07/08 03:12:36;;;;;;;15.82;8.02;;;14.40;99.90;;;;;;5100688;28;20036;-79
2023/07/08 03:15:01;;;;;;;15.85;8.18;;;14.40;99.90;;;;;;5104746;28;20028;-76
2023/07/08 03:17:27;;;;;;;17.15;7.90;;;14.50;99.90;;;;;;5115166;27;20031;-78
2023/07/08 03:19:52;;;;;;;17.00;8.30;;;14.70;99.90;;;;;;5109641;28;20460;-79
2023/07/08 03:22:18;;;;;;;17.98;8.30;;;14.80;99.90;;;;;;5109285;28;20456;-80
2023/07/08 03:24:47;;;;;;;18.95;8.43;;;14.90;99.90;;;;;;5108299;28;20024;-79
2023/07/08 03:27:15;;;;;;;21.63;8.77;;;14.80;99.90;;;;;;5109100;28;20088;-79
2023/07/08 03:29:41;;;;;;;14.27;7.60;;;14.80;99.90;;;;;;5107031;28;20656;-80
2023/07/08 03:32:10;;;;;;;15.77;8.27;;;14.70;99.90;;;;;;5108464;27;20039;-78
2023/07/08 03:34:36;;;;;;;17.10;7.30;;;14.70;99.90;;;;;;5108407;28;20679;-80
2023/07/08 03:37:02;;;;;;;15.85;7.57;;;14.60;99.90;;;;;;5120037;27;20038;-80
2023/07/08 03:39:27;;;;;;;19.52;7.72;;;14.70;99.90;;;;;;5128634;27;20429;-79
2023/07/08 03:41:53;;;;;;;16.88;7.93;;;14.40;99.90;;;;;;5129610;28;20459;-81
2023/07/08 03:44:20;;;;;;;16.27;7.95;;;14.50;99.90;;;;;;5125260;28;20409;-80
2023/07/08 03:46:51;;;;;;;19.13;8.00;;;14.50;99.90;;;;;;5104749;28;20055;-77
2023/07/08 03:49:23;;;;;;;14.90;7.45;;;14.30;99.90;;;;;;5109119;28;20383;-79
2023/07/08 03:51:50;;;;;;;16.52;8.70;;;14.30;99.90;;;;;;5107553;28;20027;-80
2023/07/08 03:54:17;;;;;;;24.27;9.38;;;14.20;99.90;;;;;;5109072;28;20043;-80
2023/07/08 03:56:43;;;;;;;23.02;8.35;;;13.80;99.90;;;;;;5108134;28;20024;-80
2023/07/08 03:59:09;;;;;;;18.58;8.40;;;13.70;99.90;;;;;;5107654;28;20030;-80
2023/07/08 04:01:35;;;;;;;18.50;9.05;;;13.50;99.90;;;;;;5106664;28;20036;-76
2023/07/08 04:04:01;;;;;;;17.65;8.50;;;13.60;99.90;;;;;;5108866;28;20031;-78
2023/07/08 04:06:28;;;;;;;19.25;8.60;;;13.70;99.90;;;;;;5107509;28;20020;-74
2023/07/08 04:08:54;;;;;;;17.75;8.43;;;14.00;99.90;;;;;;5107880;28;20042;-80
2023/07/08 04:11:22;;;;;;;19.60;8.38;;;14.40;99.90;;;;;;5108725;28;20040;-79
2023/07/08 04:13:49;;;;;;;18.83;8.35;;;14.70;99.90;;;;;;5108157;28;20092;-79
2023/07/08 04:16:29;;;;;;;18.55;7.95;;;14.70;99.90;;;;;;5120473;28;20031;-77
2023/07/08 04:18:55;;;;;;;16.80;8.65;;;14.40;99.90;;;;;;5108213;28;20036;-79
2023/07/08 04:21:23;;;;;;;20.00;8.60;;;14.30;99.90;;;;;;5108244;28;20078;-78
2023/07/08 04:23:49;;;;;;;15.80;7.82;;;14.30;99.90;;;;;;5089803;28;20020;-78
2023/07/08 04:26:15;;;;;;;17.25;8.80;;;14.30;99.90;;;;;;5108656;28;20426;-76
2023/07/08 04:28:42;;;;;;;15.18;7.75;;;14.50;99.90;;;;;;5109116;28;20027;-73
2023/07/08 04:31:07;;;;;;;16.95;8.18;;;14.70;99.90;;;;;;5112961;27;20536;-77
2023/07/08 04:33:33;;;;;;;15.68;7.97;;;14.90;99.90;;;;;;5111921;28;20031;-76
2023/07/08 04:35:59;;;;;;;15.65;7.70;;;14.90;99.90;;;;;;5109792;28;20028;-74
2023/07/08 04:38:25;;;;;;;16.10;7.88;;;15.10;99.90;;;;;;5112389;28;20057;-71
2023/07/08 04:40:52;;;;;;;16.30;8.43;;;15.20;99.90;;;;;;5111715;28;20055;-77
2023/07/08 04:43:19;;;;;;;16.38;8.45;;;15.30;99.90;;;;;;5104385;27;20039;-76
2023/07/08 04:45:50;;;;;;;20.65;7.97;;;15.30;99.90;;;;;;5091092;28;20032;-75
2023/07/08 04:48:18;;;;;;;16.10;7.75;;;15.60;99.90;;;;;;5106327;28;20056;-76
2023/07/08 04:50:48;;;;;;;14.45;7.90;;;16.00;99.90;;;;;;5108853;28;20084;-75
2023/07/08 04:53:14;;;;;;;19.85;8.05;;;15.60;99.90;;;;;;5112610;27;20036;-76
2023/07/08 04:55:43;;;;;;;15.82;8.15;;;15.30;99.90;;;;;;5111114;28;20027;-76
2023/07/08 04:58:09;;;;;;;19.50;7.93;;;15.40;99.90;;;;;;5115384;27;20076;-75
2023/07/08 05:00:35;;;;;;;15.70;8.32;;;15.50;99.90;;;;;;5123689;27;20119;-75
2023/07/08 05:03:00;;;;;;;14.85;7.97;;;15.80;99.90;;;;;;5116986;27;20157;-76
2023/07/08 05:05:26;;;;;;;16.23;8.07;;;16.00;99.90;;;;;;5131934;27;20110;-70
2023/07/08 05:07:52;;;;;;;15.63;7.78;;;16.20;99.90;;;;;;5131600;27;20046;-76
2023/07/08 05:10:18;;;;;;;18.40;8.13;;;16.50;99.90;;;;;;5113753;27;20472;-74
2023/07/08 05:12:45;;;;;;;15.43;7.35;;;17.00;99.90;;;;;;5110024;28;20042;-75
2023/07/08 05:15:11;;;;;;;16.25;7.82;;;17.30;99.90;;;;;;5103779;28;20058;-73
2023/07/08 05:17:38;;;;;;;13.82;7.13;;;17.50;99.90;;;;;;5110608;28;20804;-74
2023/07/08 05:20:07;;;;;;;13.07;7.20;;;17.70;99.90;;;;;;5108633;28;20085;-73
2023/07/08 05:22:33;;;;;;;14.18;7.35;;;18.10;99.90;;;;;;5109292;28;20752;-77
2023/07/08 05:24:59;;;;;;;15.75;7.93;;;18.40;99.90;;;;;;5108323;28;20028;-78
2023/07/08 05:27:25;;;;;;;18.85;8.93;;;18.80;99.90;;;;;;5101719;28;20079;-76
2023/07/08 05:29:51;;;;;;;17.45;7.85;;;18.90;99.90;;;;;;5090170;28;20024;-75
2023/07/08 05:32:18;;;;;;;13.77;7.93;;;18.70;99.90;;;;;;5111940;27;20040;-74
2023/07/08 05:34:44;;;;;;;12.15;7.10;;;18.80;99.90;;;;;;5112510;27;20444;-77
2023/07/08 05:37:11;;;;;;;15.35;7.90;;;18.90;99.90;;;;;;5109219;28;20070;-75
2023/07/08 05:39:37;;;;;;;13.18;7.05;;;19.00;99.90;;;;;;5107812;28;20155;-74
2023/07/08 05:42:03;;;;;;;13.82;7.55;;;19.10;99.90;;;;;;5105386;28;20523;-75
2023/07/08 05:44:28;;;;;;;18.13;7.55;;;19.40;99.90;;;;;;5108941;27;20020;-72
2023/07/08 05:46:54;;;;;;;12.60;6.85;;;19.80;99.90;;;;;;5108892;28;20407;-76
2023/07/08 05:49:20;;;;;;;16.05;7.25;;;20.20;99.90;;;;;;5107408;28;20812;-74
2023/07/08 05:51:46;;;;;;;13.35;7.03;;;20.60;99.90;;;;;;5099486;27;20075;-73
2023/07/08 05:54:12;;;;;;;13.98;6.72;;;20.90;99.90;;;;;;5104302;28;20479;-76
2023/07/08 05:56:37;;;;;;;17.00;7.28;;;21.30;99.90;;;;;;5108743;28;20032;-78
2023/07/08 05:59:04;;;;;;;16.08;7.22;;;21.60;99.90;;;;;;5109995;28;20031;-79
2023/07/08 06:01:30;;;;;;;13.65;6.60;;;22.00;98.90;;;;;;5110402;28;20645;-73
2023/07/08 06:03:59;;;;;;;18.33;6.45;;;22.30;98.50;;;;;;5110404;28;20117;-75
2023/07/08 06:06:26;;;;;;;14.50;7.53;;;22.60;97.70;;;;;;5110586;28;20107;-78
2023/07/08 06:08:52;;;;;;;13.48;6.97;;;22.70;96.40;;;;;;5110012;28;20090;-77
2023/07/08 06:11:18;;;;;;;14.50;7.28;;;22.90;95.40;;;;;;5110527;28;20031;-79
2023/07/08 06:13:43;;;;;;;11.82;6.97;;;23.00;95.00;;;;;;5091873;28;20095;-79
2023/07/08 06:16:09;;;;;;;13.07;7.43;;;23.20;95.10;;;;;;5102348;28;20031;-79
2023/07/08 06:18:35;;;;;;;13.13;7.20;;;23.10;94.90;;;;;;5107707;28;20054;-78
2023/07/08 06:21:01;;;;;;;14.20;7.30;;;23.00;94.50;;;;;;5108731;28;20068;-80
2023/07/08 06:23:28;;;;;;;10.77;6.40;;;23.00;94.80;;;;;;5104556;28;20042;-78
2023/07/08 06:25:54;;;;;;;12.40;7.15;;;23.00;94.70;;;;;;5108036;28;20055;-78
2023/07/08 06:28:20;;;;;;;14.57;6.45;;;23.20;93.30;;;;;;5095346;28;20460;-79
2023/07/08 06:30:46;;;;;;;10.45;6.47;;;23.30;93.50;;;;;;5088759;28;20058;-80
2023/07/08 06:33:12;;;;;;;16.67;6.85;;;23.40;93.30;;;;;;5094150;28;20032;-80
2023/07/08 06:35:39;;;;;;;12.02;6.70;;;23.50;93.20;;;;;;5104016;28;20024;-79
2023/07/08 06:38:06;;;;;;;15.52;6.68;;;23.80;92.50;;;;;;5094073;28;20020;-76
2023/07/08 06:40:33;;;;;;;16.52;7.00;;;24.00;92.70;;;;;;5100418;28;20024;-72
2023/07/08 06:43:02;;;;;;;14.50;6.82;;;24.10;92.10;;;;;;5100446;28;20036;-78
2023/07/08 06:45:27;;;;;;;14.43;6.47;;;24.20;90.80;;;;;;5106192;28;20134;-77
2023/07/08 06:47:53;;;;;;;12.98;7.13;;;24.30;90.90;;;;;;5107160;28;20685;-79
2023/07/08 06:50:19;;;;;;;13.20;7.10;;;24.40;91.20;;;;;;5090932;28;20123;-78
2023/07/08 06:52:44;;;;;;;13.60;6.75;;;24.60;90.70;;;;;;5104836;28;20115;-79
2023/07/08 06:55:11;;;;;;;11.45;6.90;;;24.70;89.40;;;;;;5108222;28;20055;-81
2023/07/08 06:57:40;;;;;;;13.20;6.65;;;24.90;90.30;;;;;;5108035;28;20023;-77
2023/07/08 07:00:10;;;;;;;11.93;6.80;;;24.90;90.80;;;;;;5108357;28;20473;-77
2023/07/08 07:02:35;;;;;;;13.35;6.75;;;24.80;90.70;;;;;;5108364;28;20059;-73
2023/07/08 07:05:05;;;;;;;11.15;6.72;;;24.70;90.20;;;;;;5105733;28;20032;-80
2023/07/08 07:07:31;;;;;;;13.02;7.07;;;24.70;90.20;;;;;;5095808;28;20063;-76
2023/07/08 07:09:59;;;;;;;11.60;6.97;;;24.90;90.20;;;;;;5107736;28;20494;-76
2023/07/08 07:12:26;;;;;;;12.00;6.55;;;25.00;88.80;;;;;;5108920;28;20048;-79
2023/07/08 07:14:53;;;;;;;16.70;7.38;;;24.90;89.50;;;;;;5104714;28;20925;-78
2023/07/08 07:17:23;;;;;;;16.20;7.13;;;24.90;90.70;;;;;;5097016;28;20088;-75
2023/07/08 07:19:49;;;;;;;12.43;7.53;;;24.70;90.30;;;;;;5091779;28;20032;-79
2023/07/08 07:22:15;;;;;;;16.70;7.90;;;24.60;89.80;;;;;;5099458;28;20028;-75
2023/07/08 07:24:40;;;;;;;16.35;7.78;;;24.40;91.40;;;;;;5107130;28;20035;-76
2023/07/08 07:27:07;;;;;;;17.40;7.70;;;24.30;91.80;;;;;;5105299;28;20024;-80
2023/07/08 07:29:44;;;;;;;17.80;7.63;;;24.20;91.20;;;;;;5093842;28;20077;-76
2023/07/08 07:32:10;;;;;;;19.40;7.40;;;24.30;91.90;;;;;;5092153;28;20035;-79
2023/07/08 07:34:36;;;;;;;14.40;7.80;;;24.60;91.20;;;;;;5075530;28;20530;-72
2023/07/08 07:37:02;;;;;;;20.58;7.53;;;24.80;90.40;;;;;;5105617;28;20072;-77
2023/07/08 07:39:28;;;;;;;16.00;7.78;;;25.00;89.50;;;;;;5097300;28;20039;-79
2023/07/08 07:41:54;;;;;;;11.80;6.55;;;25.00;89.70;;;;;;5088578;28;20107;-79
2023/07/08 07:44:20;;;;;;;18.13;6.15;;;25.10;90.50;;;;;;5097120;28;20115;-79
2023/07/08 07:46:46;;;;;;;25.88;6.65;;;25.30;85.40;;;;;;5106917;28;20055;-79
2023/07/08 07:49:12;;;;;;;10.48;5.70;;;25.40;85.20;;;;;;5108496;28;20028;-79
2023/07/08 07:51:38;;;;;;;15.98;5.95;;;25.20;82.20;;;;;;5105075;28;20046;-73
2023/07/08 07:54:04;;;;;;;11.77;5.85;;;24.80;81.50;;;;;;5103599;28;20036;-77
2023/07/08 07:56:29;;;;;;;14.00;5.82;;;24.60;83.10;;;;;;5108086;28;20107;-83
2023/07/08 07:58:55;;;;;;;14.30;5.82;;;24.50;84.60;;;;;;5099849;28;20054;-77
2023/07/08 08:01:21;;;;;;;12.68;6.15;;;24.50;82.90;;;;;;5107168;28;20039;-79
2023/07/08 08:03:50;;;;;;;14.93;6.55;;;24.30;84.10;;;;;;5109492;28;20039;-80
2023/07/08 08:06:17;;;;;;;14.25;6.18;;;24.30;84.70;;;;;;5109091;28;20039;-78
2023/07/08 08:08:43;;;;;;;14.73;6.05;;;24.30;83.70;;;;;;5093320;28;20392;-81
2023/07/08 08:11:09;;;;;;;17.45;6.20;;;24.20;84.80;;;;;;5112121;28;20028;-81
2023/07/08 08:13:35;;;;;;;16.27;6.65;;;24.20;84.80;;;;;;5099516;28;20062;-80
2023/07/08 08:16:02;;;;;;;16.05;6.57;;;24.30;85.30;;;;;;5102597;28;20040;-78
2023/07/08 08:18:28;;;;;;;16.27;6.53;;;24.30;87.60;;;;;;5112966;28;20434;-83
2023/07/08 08:20:53;;;;;;;16.75;7.13;;;24.40;85.00;;;;;;5111340;28;20024;-78
2023/07/08 08:23:19;;;;;;;14.07;6.78;;;24.40;86.60;;;;;;5110607;28;20435;-79
2023/07/08 08:25:44;;;;;;;14.32;6.32;;;24.40;87.00;;;;;;5111096;28;20103;-77
2023/07/08 08:28:10;;;;;;;15.65;6.60;;;24.20;84.50;;;;;;5094744;28;20039;-72
2023/07/08 08:30:36;;;;;;;14.60;6.38;;;24.20;86.70;;;;;;5102752;28;20515;-82
2023/07/08 08:33:02;;;;;;;15.63;6.22;;;24.10;84.90;;;;;;5109767;28;20043;-80
2023/07/08 08:35:28;;;;;;;16.38;6.28;;;24.20;83.90;;;;;;5111696;28;20384;-77
2023/07/08 08:37:53;;;;;;;11.88;6.22;;;24.30;88.20;;;;;;5107008;28;20035;-79
2023/07/08 08:40:20;;;;;;;18.05;6.57;;;24.60;87.10;;;;;;5111503;28;20035;-81
2023/07/08 08:42:53;;;;;;;11.75;6.07;;;24.80;83.70;;;;;;5110684;28;20062;-79
2023/07/08 08:45:21;;;;;;;18.00;6.57;;;25.10;83.60;;;;;;5111254;28;20030;-80
2023/07/08 08:48:00;;;;;;;14.73;5.78;;;25.20;84.00;;;;;;5098819;28;20472;-77
2023/07/08 08:50:29;;;;;;;14.55;6.07;;;25.50;84.20;;;;;;5091858;28;20028;-81
2023/07/08 08:53:02;;;;;;;10.43;5.50;;;25.80;84.20;;;;;;5103792;28;20123;-78
2023/07/08 08:55:29;;;;;;;11.30;5.65;;;26.10;82.10;;;;;;5097279;28;20039;-75
2023/07/08 08:58:26;;;;;;;15.63;6.80;;;26.10;82.30;;;;;;5101616;28;20027;-81
2023/07/08 09:01:01;;;;;;;13.30;7.00;;;26.30;80.20;;;;;;5108157;28;20071;-77
2023/07/08 09:03:36;;;;;;;12.32;6.20;;;26.20;80.50;;;;;;5089225;28;20118;-73
2023/07/08 09:06:19;;;;;;;13.70;6.22;;;26.30;78.40;;;;;;5111905;27;20509;-78
2023/07/08 09:08:46;;;;;;;14.68;6.45;;;26.60;78.30;;;;;;5105798;27;20042;-79
2023/07/08 09:11:39;;;;;;;14.85;6.70;;;26.70;77.20;;;;;;5109087;28;20488;-76
2023/07/08 09:14:13;;;;;;;14.57;6.05;;;27.00;76.50;;;;;;5104787;28;20031;-80
2023/07/08 09:16:47;;;;;;;14.98;7.15;;;27.40;77.10;;;;;;5108638;28;20471;-71
2023/07/08 09:19:18;;;;;;;15.93;7.10;;;27.60;77.30;;;;;;5104614;28;20114;-79
2023/07/08 09:21:55;;;;;;;15.23;6.85;;;27.50;71.90;;;;;;5111117;27;20102;-73
2023/07/08 09:24:41;;;;;;;17.92;7.35;;;27.40;75.40;;;;;;5109275;28;20125;-76
2023/07/08 09:27:06;;;;;;;19.30;7.00;;;27.60;72.50;;;;;;5089643;28;20036;-77
2023/07/08 09:29:33;;;;;;;12.55;6.45;;;28.00;71.90;;;;;;5108527;28;20034;-79
2023/07/08 09:32:08;;;;;;;14.02;6.75;;;28.40;71.70;;;;;;5107601;28;20043;-79
2023/07/08 09:34:42;;;;;;;14.02;6.82;;;28.50;70.40;;;;;;5106464;28;20032;-79
2023/07/08 09:37:27;;;;;;;11.35;6.90;;;28.50;68.80;;;;;;5109064;28;20026;-79
2023/07/08 09:39:54;;;;;;;11.77;6.97;;;28.70;68.80;;;;;;5102652;27;20028;-78
2023/07/08 09:42:24;;;;;;;11.68;6.43;;;29.10;67.70;;;;;;5108203;28;20118;-77
2023/07/08 09:44:58;;;;;;;13.90;6.65;;;29.50;65.80;;;;;;5122169;27;20534;-79
2023/07/08 09:47:30;;;;;;;13.07;6.22;;;29.70;63.30;;;;;;5122618;27;20044;-79
2023/07/08 09:49:57;;;;;;;12.10;6.60;;;29.90;63.10;;;;;;5092008;28;20055;-74
2023/07/08 09:52:23;;;;;;;13.73;7.22;;;30.30;66.70;;;;;;5090452;28;20032;-79
2023/07/08 09:54:49;;;;;;;13.68;6.85;;;30.50;62.20;;;;;;5089319;28;20024;-79
2023/07/08 09:57:26;;;;;;;18.45;6.45;;;30.40;62.50;;;;;;5072201;28;20445;-78
2023/07/08 09:59:58;;;;;;;12.98;5.75;;;30.20;63.70;;;;;;5089512;28;20055;-81
2023/07/08 10:02:39;;;;;;;10.15;5.82;;;30.00;64.30;;;;;;5095904;27;20026;-79
2023/07/08 10:05:15;;;;;;;11.95;5.10;;;30.30;61.80;;;;;;5118205;27;20031;-77
2023/07/08 10:07:40;;;;;;;13.55;5.53;;;30.80;59.50;;;;;;5130984;27;20027;-74
2023/07/08 10:10:12;;;;;;;12.07;5.30;;;30.80;56.70;;;;;;5130238;27;20114;-80
2023/07/08 10:12:41;;;;;;;10.48;4.95;;;30.20;58.10;;;;;;5130493;27;20081;-77
2023/07/08 10:15:31;;;;;;;14.07;5.30;;;29.70;58.50;;;;;;5130344;27;20024;-80
2023/07/08 10:17:57;;;;;;;10.60;5.50;;;29.40;58.60;;;;;;5108156;28;20036;-75
2023/07/08 10:20:23;;;;;;;10.57;5.15;;;29.00;59.10;;;;;;5102864;27;20039;-78
2023/07/08 10:22:55;;;;;;;12.52;4.53;;;28.80;60.90;;;;;;5089150;28;20042;-78
2023/07/08 10:25:48;;;;;;;14.05;4.95;;;28.70;59.50;;;;;;5089741;28;20024;-77
2023/07/08 10:29:06;;;;;;;13.48;5.45;;;28.70;60.50;;;;;;5089430;28;20032;-79
2023/07/08 10:32:00;;;;;;;9.13;5.38;;;28.70;60.10;;;;;;5066473;28;20124;-77
2023/07/08 10:34:56;;;;;;;10.70;5.35;;;28.70;59.90;;;;;;5116004;27;20027;-77
2023/07/08 10:37:43;;;;;;;11.57;6.22;;;28.60;63.20;;;;;;5130612;27;20036;-78
2023/07/08 10:40:21;;;;;;;11.73;6.20;;;28.10;66.20;;;;;;5129864;27;20030;-80
2023/07/08 10:43:03;;;;;;;14.70;6.80;;;27.70;68.80;;;;;;5128238;27;20031;-70
2023/07/08 10:45:38;;;;;;;14.02;6.50;;;27.50;69.50;;;;;;5130531;27;20023;-78
2023/07/08 10:48:49;;;;;;;12.30;6.40;;;27.20;70.70;;;;;;5116383;27;20047;-75
2023/07/08 10:51:25;;;;;;;12.15;6.18;;;27.00;72.10;;;;;;5105252;28;20043;-78
2023/07/08 10:54:09;;;;;;;13.18;6.47;;;27.00;73.00;;;;;;5109095;28;20024;-77
2023/07/08 10:57:00;;;;;;;15.48;6.38;;;26.90;71.80;;;;;;5111585;27;20059;-76
2023/07/08 10:59:44;;;;;;;10.80;5.80;;;26.80;73.60;;;;;;5107241;28;20092;-77
2023/07/08 11:02:35;;;;;;;10.73;5.75;;;26.70;73.30;;;;;;5112439;27;20036;-78
2023/07/08 11:05:21;;;;;;;13.55;5.95;;;26.60;74.70;;;;;;5105020;27;20028;-77
2023/07/08 11:07:55;;;;;;;16.33;6.55;;;26.60;73.30;;;;;;5108153;28;20543;-73
2023/07/08 11:10:29;;;;;;;12.32;5.40;;;26.40;74.10;;;;;;5102844;28;20038;-76
2023/07/08 11:13:11;;;;;;;13.43;6.50;;;26.30;74.60;;;;;;5106728;28;20820;-76
2023/07/08 11:15:45;;;;;;;11.95;6.10;;;26.20;75.20;;;;;;5103630;27;20102;-74
2023/07/08 11:18:28;;;;;;;12.02;5.93;;;26.40;76.00;;;;;;5101687;28;20394;-79
2023/07/08 11:21:06;;;;;;;14.55;6.03;;;26.50;75.20;;;;;;5104503;28;20023;-81
2023/07/08 11:23:51;;;;;;;14.98;5.35;;;26.40;73.50;;;;;;5109412;28;20028;-77
2023/07/08 11:26:23;;;;;;;13.18;5.70;;;26.60;75.50;;;;;;5106526;28;20143;-75
2023/07/08 11:28:52;;;;;;;10.27;5.80;;;26.90;73.20;;;;;;5093339;28;20024;-73
2023/07/08 11:31:19;;;;;;;14.13;6.50;;;27.10;73.30;;;;;;5102019;28;20468;-77
2023/07/08 11:33:46;;;;;;;9.90;5.88;;;27.60;73.50;;;;;;5090582;28;20024;-71
2023/07/08 11:36:13;;;;;;;12.70;6.13;;;27.70;71.40;;;;;;5103637;28;20566;-79
2023/07/08 11:38:48;;;;;;;19.63;6.60;;;28.10;70.90;;;;;;5088673;28;20028;-80
2023/07/08 11:41:18;;;;;;;14.20;5.85;;;28.40;69.00;;;;;;5099793;28;20016;-80
2023/07/08 11:43:50;;;;;;;14.07;6.38;;;28.40;69.00;;;;;;5094886;28;20034;-78
2023/07/08 11:46:28;;;;;;;11.40;5.57;;;28.60;71.60;;;;;;5095227;28;20034;-81
2023/07/08 11:48:56;;;;;;;13.20;5.65;;;28.90;69.90;;;;;;5107045;28;20097;-77
2023/07/08 11:51:36;;;;;;;16.00;6.47;;;29.10;65.90;;;;;;5098331;28;20061;-78
2023/07/08 11:54:31;;;;;;;11.52;5.95;;;29.10;63.70;;;;;;5100120;28;20024;-81
2023/07/08 11:56:56;;;;;;;14.13;5.68;;;29.70;62.50;;;;;;5106601;28;20019;-78
2023/07/08 11:59:24;;;;;;;12.68;5.45;;;29.90;64.30;;;;;;5098367;28;20034;-78
2023/07/08 12:02:09;;;;;;;10.65;5.40;;;30.30;60.40;;;;;;5095405;28;20133;-71
2023/07/08 12:04:55;;;;;;;9.90;5.45;;;30.30;59.80;;;;;;5102544;28;20053;-76
2023/07/08 12:07:33;;;;;;;10.30;5.75;;;30.70;58.70;;;;;;5103458;28;20038;-77
2023/07/08 12:10:25;;;;;;;12.50;5.57;;;30.80;58.80;;;;;;5106330;28;20035;-77
2023/07/08 12:12:51;;;;;;;10.15;5.70;;;30.60;57.90;;;;;;5092285;28;20035;-72
2023/07/08 12:15:25;;;;;;;9.40;5.53;;;30.80;59.00;;;;;;5108256;28;20028;-76
2023/07/08 12:17:53;;;;;;;13.80;5.75;;;31.30;55.70;;;;;;5106668;28;20394;-73
2023/07/08 12:20:22;;;;;;;14.15;5.70;;;31.50;55.80;;;;;;5108251;28;20032;-76
2023/07/08 12:22:47;;;;;;;8.80;5.78;;;31.70;56.10;;;;;;5107575;28;20118;-72
2023/07/08 12:25:16;;;;;;;8.73;5.15;;;32.10;56.70;;;;;;5102794;28;20106;-77
2023/07/08 12:27:46;;;;;;;11.18;5.65;;;32.50;55.10;;;;;;5097152;28;20054;-75
2023/07/08 12:30:14;;;;;;;11.75;5.65;;;32.70;57.10;;;;;;5089702;28;20883;-77
2023/07/08 12:32:42;;;;;;;10.82;6.30;;;32.60;52.90;;;;;;5108219;28;20039;-77
2023/07/08 12:35:29;;;;;;;9.45;5.07;;;32.40;53.80;;;;;;5086111;28;20023;-78
2023/07/08 12:38:28;;;;;;;11.98;5.60;;;32.70;53.00;;;;;;5100475;28;20862;-76
2023/07/08 12:41:02;;;;;;;9.18;5.32;;;32.60;51.80;;;;;;5096326;28;20540;-77
2023/07/08 12:43:28;;;;;;;8.68;5.00;;;31.90;53.40;;;;;;5105321;28;20150;-79
2023/07/08 12:45:54;;;;;;;9.38;5.20;;;32.00;53.80;;;;;;5086111;28;20028;-77
2023/07/08 12:48:19;;;;;;;12.07;4.80;;;32.20;51.80;;;;;;5105118;28;20498;-77
2023/07/08 12:50:45;;;;;;;8.57;4.28;;;32.20;50.70;;;;;;5097372;27;20089;-76
2023/07/08 12:53:12;;;;;;;7.22;4.85;;;32.10;51.10;;;;;;5095978;28;20630;-77